Time;durP1;ratioP1;P1;durP2;ratioP2;P2;SDS_P1;SDS_P2;PMS_P1;PMS_P2;Temp;Humidity;BMP_temperature;BMP_pressure;BME280_temperature;BME280_humidity;BME280_pressure;Samples;Min_cycle;Max_cycle;Signal;HPM_P1;HPM_P2
2022/10/02 00:01:47;;;;;;;410.57;175.73;;;11.60;99.90;;;;;;4941568;28;20222;-55
2022/10/02 00:04:19;;;;;;;388.07;165.47;;;11.70;99.90;;;;;;4935820;28;20223;-54
2022/10/02 00:06:48;;;;;;;425.23;181.50;;;11.60;99.90;;;;;;4940190;28;20186;-54
2022/10/02 00:09:22;;;;;;;424.23;177.37;;;11.80;99.90;;;;;;4950420;28;20873;-55
2022/10/02 00:11:52;;;;;;;367.80;158.90;;;11.70;99.90;;;;;;4945206;28;20218;-55
2022/10/02 00:14:21;;;;;;;422.10;175.77;;;11.70;99.90;;;;;;4943532;28;20679;-55
2022/10/02 00:16:52;;;;;;;414.30;176.53;;;11.70;99.90;;;;;;4942149;28;20412;-54
2022/10/02 00:19:19;;;;;;;466.80;196.40;;;11.70;99.90;;;;;;4939776;28;20595;-55
2022/10/02 00:21:44;;;;;;;390.70;165.23;;;;;;;;;;4943920;28;20212;-55
2022/10/02 00:24:16;;;;;;;421.90;178.20;;;11.70;99.90;;;;;;4945534;28;20209;-55
2022/10/02 00:27:14;;;;;;;443.00;183.80;;;11.60;99.90;;;;;;4950525;28;20623;-55
2022/10/02 00:29:54;;;;;;;473.07;203.93;;;11.60;99.90;;;;;;4943084;28;20219;-55
2022/10/02 00:32:36;;;;;;;372.07;158.27;;;11.90;99.90;;;;;;4944494;28;20214;-55
2022/10/02 00:35:01;;;;;;;381.07;163.70;;;;;;;;;;4945706;28;20225;-55
2022/10/02 00:37:42;;;;;;;401.27;170.70;;;10.00;99.90;;;;;;4941892;28;20209;-54
2022/10/02 00:40:08;;;;;;;402.37;171.90;;;;;;;;;;4945227;28;20217;-55
2022/10/02 00:42:55;;;;;;;354.07;151.23;;;11.30;99.90;;;;;;4947210;28;20187;-55
2022/10/02 00:45:49;;;;;;;419.17;179.37;;;10.90;99.90;;;;;;4947970;28;20316;-55
2022/10/02 00:48:31;;;;;;;389.47;169.43;;;11.00;99.90;;;;;;4944869;28;20318;-54
2022/10/02 00:50:57;;;;;;;402.97;167.37;;;;;;;;;;4945760;28;20264;-55
2022/10/02 00:53:40;;;;;;;324.60;141.03;;;10.80;99.90;;;;;;4951750;28;20586;-55
2022/10/02 00:56:06;;;;;;;369.97;156.17;;;;;;;;;;4954386;28;20226;-55
2022/10/02 00:58:54;;;;;;;381.63;159.30;;;11.10;99.90;;;;;;4955273;28;20353;-54
2022/10/02 01:01:40;;;;;;;471.20;194.87;;;11.10;99.90;;;;;;4937001;28;20226;-54
2022/10/02 01:04:08;;;;;;;447.67;188.10;;;;;;;;;;4942142;28;20232;-54
2022/10/02 01:06:34;;;;;;;396.53;171.00;;;;;;;;;;4941178;28;20414;-55
2022/10/02 01:09:00;;;;;;;427.40;182.80;;;;;;;;;;4950003;28;20317;-54
2022/10/02 01:11:29;;;;;;;378.07;159.33;;;11.10;99.90;;;;;;4946925;28;20252;-55
2022/10/02 01:13:55;;;;;;;395.13;167.57;;;;;;;;;;4950594;28;20221;-54
2022/10/02 01:16:21;;;;;;;395.53;169.07;;;;;;;;;;4945537;28;20761;-54
2022/10/02 01:18:47;;;;;;;431.13;184.13;;;;;;;;;;4941644;28;20194;-55
2022/10/02 01:21:28;;;;;;;397.47;169.33;;;9.90;99.90;;;;;;4944017;28;20547;-55
2022/10/02 01:24:26;;;;;;;419.67;177.13;;;11.00;99.90;;;;;;4943584;28;20231;-55
2022/10/02 01:26:52;;;;;;;418.70;176.13;;;;;;;;;;4934300;28;20312;-55
2022/10/02 01:29:18;;;;;;;409.53;172.90;;;;;;;;;;4947600;28;22621;-54
2022/10/02 01:31:44;;;;;;;420.40;175.63;;;;;;;;;;4947331;28;20206;-54
2022/10/02 01:34:10;;;;;;;439.23;188.00;;;;;;;;;;4953341;28;20309;-55
2022/10/02 01:36:36;;;;;;;453.80;193.27;;;;;;;;;;4941850;28;20186;-55
2022/10/02 01:39:02;;;;;;;373.17;158.40;;;;;;;;;;4939157;28;20564;-55
2022/10/02 01:41:28;;;;;;;410.97;174.67;;;;;;;;;;4941177;28;20222;-55
2022/10/02 01:44:01;;;;;;;400.13;169.83;;;11.10;99.90;;;;;;4946946;28;20235;-55
2022/10/02 01:46:35;;;;;;;375.57;160.27;;;10.60;99.90;;;;;;4944078;28;20309;-54
2022/10/02 01:49:18;;;;;;;415.00;175.03;;;10.80;99.90;;;;;;4940770;28;20222;-55
2022/10/02 01:52:15;;;;;;;417.93;177.13;;;10.80;99.90;;;;;;4935251;28;20194;-54
2022/10/02 01:55:18;;;;;;;442.87;186.93;;;10.80;99.90;;;;;;4943146;28;20696;-55
2022/10/02 01:58:09;;;;;;;359.37;151.07;;;10.80;99.90;;;;;;4947217;28;20834;-55
2022/10/02 02:00:51;;;;;;;388.70;164.67;;;10.80;99.90;;;;;;4945141;28;20480;-54
2022/10/02 02:03:23;;;;;;;366.83;157.20;;;10.90;99.90;;;;;;4942507;28;20281;-55
2022/10/02 02:06:12;;;;;;;367.43;153.90;;;10.80;99.90;;;;;;4951303;28;20222;-55
2022/10/02 02:08:57;;;;;;;371.67;157.43;;;10.80;99.90;;;;;;4949641;28;20217;-55
2022/10/02 02:11:23;;;;;;;433.67;181.37;;;;;;;;;;4935722;28;20248;-54
2022/10/02 02:14:10;;;;;;;433.07;182.17;;;10.80;99.90;;;;;;4941615;28;21118;-55
2022/10/02 02:16:56;;;;;;;333.30;143.23;;;10.80;99.90;;;;;;4946204;28;20302;-54
2022/10/02 02:19:30;;;;;;;375.30;159.57;;;10.90;99.90;;;;;;4942962;28;20473;-54
2022/10/02 02:22:23;;;;;;;384.13;163.03;;;10.90;99.90;;;;;;4948879;28;20485;-54
2022/10/02 02:25:27;;;;;;;394.00;168.80;;;10.90;99.90;;;;;;4946582;28;20220;-54
2022/10/02 02:27:58;;;;;;;391.67;167.00;;;9.00;99.90;;;;;;4890113;29;20228;-54
2022/10/02 02:30:25;;;;;;;366.20;157.13;;;;;;;;;;4942150;28;20289;-55
2022/10/02 02:32:55;;;;;;;377.03;156.97;;;11.00;99.90;;;;;;4952328;28;20218;-55
2022/10/02 02:35:30;;;;;;;391.83;167.43;;;11.00;99.90;;;;;;4946735;28;22429;-55
2022/10/02 02:38:03;;;;;;;393.40;166.33;;;11.00;99.90;;;;;;4941849;28;20226;-54
2022/10/02 02:40:31;;;;;;;360.67;150.43;;;11.10;99.90;;;;;;4947862;28;20238;-54
2022/10/02 02:43:14;;;;;;;355.43;151.40;;;9.00;99.90;;;;;;4950985;28;20217;-54
2022/10/02 02:45:47;;;;;;;434.90;181.80;;;11.10;99.90;;;;;;4943817;28;21025;-54
2022/10/02 02:48:24;;;;;;;353.13;152.80;;;11.20;99.90;;;;;;4945726;28;20206;-54
2022/10/02 02:51:16;;;;;;;385.77;166.20;;;11.20;99.90;;;;;;4947553;28;20225;-55
2022/10/02 02:53:50;;;;;;;390.97;164.63;;;11.30;99.90;;;;;;4944955;28;20678;-55
2022/10/02 02:56:17;;;;;;;392.63;167.03;;;11.30;99.90;;;;;;4947372;28;20214;-55
2022/10/02 02:59:07;;;;;;;454.73;188.63;;;11.50;99.90;;;;;;4949425;28;20224;-54
2022/10/02 03:01:33;;;;;;;510.90;212.50;;;;;;;;;;4939204;28;20264;-54
2022/10/02 03:03:59;;;;;;;409.13;171.70;;;;;;;;;;4944461;28;20233;-54
2022/10/02 03:06:41;;;;;;;400.07;170.63;;;11.40;99.90;;;;;;4942466;28;20217;-54
2022/10/02 03:09:20;;;;;;;362.67;154.73;;;11.40;99.90;;;;;;4950348;28;20195;-55
2022/10/02 03:12:28;;;;;;;418.80;175.93;;;11.40;99.90;;;;;;4944197;28;20222;-54
2022/10/02 03:15:28;;;;;;;408.27;172.10;;;11.40;99.90;;;;;;4943754;28;20226;-54
2022/10/02 03:18:07;;;;;;;394.10;168.13;;;11.50;99.90;;;;;;4945692;28;21297;-55
2022/10/02 03:20:45;;;;;;;439.47;184.90;;;11.50;99.90;;;;;;4945647;28;20323;-55
2022/10/02 03:23:22;;;;;;;386.83;164.53;;;11.50;99.90;;;;;;4942621;28;20225;-54
2022/10/02 03:26:25;;;;;;;392.03;166.77;;;11.40;99.90;;;;;;4945998;28;20240;-55
2022/10/02 03:28:54;;;;;;;380.33;162.10;;;11.50;99.90;;;;;;4941006;28;20296;-54
2022/10/02 03:31:20;;;;;;;411.83;175.83;;;;;;;;;;4943793;28;20234;-55
2022/10/02 03:33:48;;;;;;;429.37;183.93;;;11.40;99.90;;;;;;4942824;28;20183;-55
2022/10/02 03:36:19;;;;;;;392.77;166.40;;;;;;;;;;4941781;28;20226;-54
2022/10/02 03:38:46;;;;;;;439.20;186.47;;;11.40;99.90;;;;;;4946021;28;20720;-55
2022/10/02 03:41:13;;;;;;;431.87;182.80;;;;;;;;;;4947013;28;20852;-54
2022/10/02 03:43:38;;;;;;;387.80;165.13;;;;;;;;;;4937243;28;20244;-55
2022/10/02 03:46:04;;;;;;;408.03;174.80;;;;;;;;;;4938752;28;20230;-55
2022/10/02 03:48:30;;;;;;;354.87;154.80;;;;;;;;;;4946620;28;20186;-55
2022/10/02 03:50:57;;;;;;;429.17;183.43;;;11.10;99.90;;;;;;4953556;28;20476;-55
2022/10/02 03:53:28;;;;;;;399.73;169.77;;;11.10;99.90;;;;;;4949391;28;20312;-55
2022/10/02 03:56:03;;;;;;;446.33;186.80;;;9.80;99.90;;;;;;4949678;28;20230;-54
2022/10/02 03:58:29;;;;;;;369.43;155.27;;;;;;;;;;4950630;28;20228;-55
2022/10/02 04:01:17;;;;;;;449.67;188.13;;;10.80;99.90;;;;;;4944271;28;20678;-54
2022/10/02 04:03:53;;;;;;;406.13;170.53;;;10.60;99.90;;;;;;4944837;28;21302;-55
2022/10/02 04:06:24;;;;;;;347.13;145.40;;;10.80;99.90;;;;;;4946623;28;20399;-54
2022/10/02 04:09:13;;;;;;;378.37;160.67;;;10.80;99.90;;;;;;4955352;28;20221;-54
2022/10/02 04:12:07;;;;;;;429.70;180.00;;;10.70;99.90;;;;;;4941754;28;20238;-55
2022/10/02 04:14:54;;;;;;;398.83;169.20;;;11.10;99.90;;;;;;4935911;28;20240;-55
2022/10/02 04:17:52;;;;;;;408.93;172.40;;;10.60;99.90;;;;;;4934599;28;20377;-54
2022/10/02 04:20:25;;;;;;;402.27;172.60;;;10.50;99.90;;;;;;4938081;28;20233;-54
2022/10/02 04:22:50;;;;;;;375.63;158.47;;;;;;;;;;4945880;28;20280;-55
2022/10/02 04:25:20;;;;;;;523.17;222.10;;;10.60;99.90;;;;;;4943718;28;20242;-55
2022/10/02 04:27:55;;;;;;;367.70;153.40;;;10.50;99.90;;;;;;4949622;28;20190;-55
2022/10/02 04:30:21;;;;;;;419.47;173.57;;;;;;;;;;4954338;28;20221;-55
2022/10/02 04:32:47;;;;;;;377.10;157.87;;;10.50;99.90;;;;;;4945524;28;20756;-55
2022/10/02 04:35:47;;;;;;;457.30;187.93;;;10.60;99.90;;;;;;4944348;28;20313;-54
2022/10/02 04:38:30;;;;;;;400.50;165.70;;;10.50;99.90;;;;;;4943486;28;20245;-54
2022/10/02 04:41:16;;;;;;;423.47;176.03;;;10.50;99.90;;;;;;4945306;28;20213;-55
2022/10/02 04:44:05;;;;;;;415.20;170.20;;;10.50;99.90;;;;;;4945864;28;21224;-54
2022/10/02 04:46:56;;;;;;;377.63;157.37;;;10.50;99.90;;;;;;4944006;28;20666;-55
2022/10/02 04:49:22;;;;;;;;;;;;;;;;;;4944020;28;20109;-55
2022/10/02 04:51:48;;;;;;;;;;;;;;;;;;4946226;28;19914;-54
2022/10/02 04:54:14;;;;;;;;;;;;;;;;;;4954947;28;19917;-54
2022/10/02 04:56:39;;;;;;;;;;;;;;;;;;4946613;28;20469;-54
2022/10/02 04:59:05;;;;;;;;;;;;;;;;;;4954940;28;20347;-55
2022/10/02 05:01:31;;;;;;;;;;;;;;;;;;4948168;28;21981;-55
2022/10/02 05:04:15;;;;;;;;;;;10.60;99.90;;;;;;4944045;28;20278;-54
2022/10/02 05:06:49;;;;;;;;;;;10.50;99.90;;;;;;4941524;28;20383;-55
2022/10/02 05:09:19;;;;;;;;;;;10.50;99.90;;;;;;4954277;28;19914;-54
2022/10/02 05:11:45;;;;;;;;;;;;;;;;;;4941626;28;19921;-54
2022/10/02 05:14:11;;;;;;;;;;;;;;;;;;4939608;28;20647;-54
2022/10/02 05:16:37;;;;;;;;;;;;;;;;;;4939605;28;20315;-55
2022/10/02 05:19:03;;;;;;;;;;;;;;;;;;4942108;28;19984;-54
2022/10/02 05:21:29;;;;;;;;;;;;;;;;;;4945173;28;20013;-55
2022/10/02 05:23:54;;;;;;;;;;;;;;;;;;4945125;28;19921;-55
2022/10/02 05:26:31;;;;;;;;;;;10.50;99.90;;;;;;4940993;28;20008;-54
2022/10/02 05:28:57;;;;;;;;;;;;;;;;;;4951155;28;20169;-55
2022/10/02 05:31:22;;;;;;;;;;;;;;;;;;4944824;28;19979;-55
2022/10/02 05:33:48;;;;;;;;;;;;;;;;;;4946452;28;21569;-55
2022/10/02 05:36:20;;;;;;;;;;;10.70;99.90;;;;;;4944298;28;19907;-55
2022/10/02 05:38:46;;;;;;;;;;;;;;;;;;4946303;28;19918;-54
2022/10/02 05:41:12;;;;;;;;;;;;;;;;;;4946794;28;19929;-55
2022/10/02 05:43:38;;;;;;;;;;;;;;;;;;4945516;28;19938;-54
2022/10/02 05:46:04;;;;;;;;;;;;;;;;;;4945341;28;19972;-54
2022/10/02 05:48:30;;;;;;;;;;;;;;;;;;4945473;28;20363;-54
2022/10/02 05:50:55;;;;;;;;;;;;;;;;;;4946027;28;20315;-55
2022/10/02 05:53:21;;;;;;;;;;;;;;;;;;4954175;28;19913;-55
2022/10/02 05:55:47;;;;;;;;;;;;;;;;;;4951038;28;20049;-54
2022/10/02 05:58:13;;;;;;;;;;;;;;;;;;4952765;28;19925;-54
2022/10/02 06:00:39;;;;;;;;;;;;;;;;;;4958380;28;19932;-54
2022/10/02 06:03:08;;;;;;;;;;;;;;;;;;4947098;28;19914;-54
2022/10/02 06:05:33;;;;;;;;;;;;;;;;;;4939373;28;20415;-54
2022/10/02 06:08:01;;;;;;;;;;;;;;;;;;4945534;28;20031;-54
2022/10/02 06:10:27;;;;;;;;;;;;;;;;;;4935566;28;19929;-53
2022/10/02 06:12:53;;;;;;;;;;;;;;;;;;4945320;28;20098;-53
2022/10/02 06:15:21;;;;;;;;;;;;;;;;;;4947288;28;20065;-53
2022/10/02 06:17:47;;;;;;;;;;;;;;;;;;4943568;28;20374;-54
2022/10/02 06:20:13;;;;;;;;;;;;;;;;;;4955494;28;19918;-53
2022/10/02 06:22:39;;;;;;;;;;;;;;;;;;4954519;28;19922;-53
2022/10/02 06:25:04;;;;;;;;;;;;;;;;;;4961131;28;20391;-53
2022/10/02 06:27:30;;;;;;;;;;;;;;;;;;4956621;28;20435;-53
2022/10/02 06:29:56;;;;;;;;;;;;;;;;;;4957514;28;19941;-54
2022/10/02 06:32:23;;;;;;;;;;;;;;;;;;4969004;28;20346;-53
2022/10/02 06:34:49;;;;;;;;;;;11.30;99.90;;;;;;4963545;28;19922;-54
2022/10/02 06:37:14;;;;;;;;;;;;;;;;;;4952701;28;19968;-53
2022/10/02 06:39:40;;;;;;;;;;;;;;;;;;4961795;28;19914;-53
2022/10/02 06:42:06;;;;;;;;;;;;;;;;;;4948373;28;20008;-53
2022/10/02 06:44:32;;;;;;;;;;;;;;;;;;4954398;28;19918;-53
2022/10/02 06:47:01;;;;;;;;;;;11.50;99.90;;;;;;4957147;28;19969;-53
2022/10/02 06:49:26;;;;;;;;;;;;;;;;;;4958177;28;19914;-53
2022/10/02 06:51:52;;;;;;;;;;;;;;;;;;4953437;28;19914;-53
2022/10/02 06:54:18;;;;;;;;;;;;;;;;;;4957441;28;19918;-53
2022/10/02 06:56:44;;;;;;;;;;;;;;;;;;4950074;28;19988;-53
2022/10/02 06:59:10;;;;;;;;;;;;;;;;;;4926742;28;20018;-53
2022/10/02 07:01:36;;;;;;;;;;;;;;;;;;4943991;28;19922;-54
2022/10/02 07:04:03;;;;;;;;;;;;;;;;;;4942598;28;19922;-53
2022/10/02 07:06:28;;;;;;;;;;;;;;;;;;4941529;28;20005;-53
2022/10/02 07:08:54;;;;;;;;;;;;;;;;;;4942605;28;19913;-53
2022/10/02 07:11:20;;;;;;;;;;;;;;;;;;4946750;28;19918;-55
2022/10/02 07:13:46;;;;;;;;;;;;;;;;;;4948787;28;19922;-53
2022/10/02 07:16:12;;;;;;;;;;;;;;;;;;4949430;28;19921;-53
2022/10/02 07:18:41;;;;;;;;;;;;;;;;;;4956974;28;19914;-53
2022/10/02 07:21:07;;;;;;;;;;;;;;;;;;4947909;28;20009;-54
2022/10/02 07:23:34;;;;;;;;;;;;;;;;;;4949765;28;20076;-53
2022/10/02 07:25:59;;;;;;;;;;;;;;;;;;4949623;28;19926;-53
2022/10/02 07:28:25;;;;;;;;;;;;;;;;;;4954701;28;19915;-53
2022/10/02 07:30:51;;;;;;;;;;;;;;;;;;4950302;28;19953;-53
2022/10/02 07:33:18;;;;;;;;;;;;;;;;;;4935319;28;21636;-53
2022/10/02 07:35:44;;;;;;;;;;;;;;;;;;4932184;28;19964;-53
2022/10/02 07:38:10;;;;;;;;;;;;;;;;;;4930027;28;20052;-53
2022/10/02 07:40:36;;;;;;;;;;;;;;;;;;4940694;28;19918;-53
2022/10/02 07:43:02;;;;;;;;;;;;;;;;;;4947745;28;19922;-53
2022/10/02 07:45:28;;;;;;;;;;;;;;;;;;4951418;28;20036;-54
2022/10/02 07:47:54;;;;;;;;;;;;;;;;;;4938326;28;19922;-54
2022/10/02 07:50:19;;;;;;;;;;;;;;;;;;4950910;28;19919;-54
2022/10/02 07:52:45;;;;;;;;;;;;;;;;;;4948139;28;20120;-54
2022/10/02 07:55:17;;;;;;;;;;;12.90;99.90;;;;;;4953136;28;20292;-54
2022/10/02 07:57:43;;;;;;;;;;;;;;;;;;4954552;28;21635;-54
2022/10/02 08:00:09;;;;;;;;;;;;;;;;;;4950525;28;20098;-54
2022/10/02 08:02:34;;;;;;;;;;;;;;;;;;4960506;28;19965;-54
2022/10/02 08:05:00;;;;;;;;;;;;;;;;;;4952520;28;20905;-54
2022/10/02 08:07:26;;;;;;;;;;;;;;;;;;4953340;28;19949;-54
2022/10/02 08:09:52;;;;;;;;;;;;;;;;;;4967351;28;19906;-54
2022/10/02 08:12:18;;;;;;;;;;;;;;;;;;4953446;28;19906;-54
2022/10/02 08:14:45;;;;;;;;;;;13.60;99.90;;;;;;4949208;28;20148;-54
2022/10/02 08:17:10;;;;;;;;;;;;;;;;;;4938571;28;19928;-52
2022/10/02 08:19:38;;;;;;;;;;;;;;;;;;4947572;28;20386;-52
2022/10/02 08:22:08;;;;;;;;;;;;;;;;;;4954037;28;19922;-52
2022/10/02 08:24:34;;;;;;;;;;;;;;;;;;4952687;28;19914;-52
2022/10/02 08:27:00;;;;;;;;;;;;;;;;;;4936287;28;20442;-54
2022/10/02 08:29:26;;;;;;;;;;;;;;;;;;4941029;28;19918;-54
2022/10/02 08:31:52;;;;;;;;;;;;;;;;;;4941922;28;20005;-54
2022/10/02 08:34:19;;;;;;;;;;;;;;;;;;4963044;28;20018;-54
2022/10/02 08:36:45;;;;;;;;;;;;;;;;;;4942587;28;20449;-54
2022/10/02 08:39:11;;;;;;;;;;;;;;;;;;4941730;28;19906;-54
2022/10/02 08:41:37;;;;;;;;;;;;;;;;;;4945171;28;20814;-54
2022/10/02 08:44:04;;;;;;;;;;;;;;;;;;4953384;28;19918;-54
2022/10/02 08:46:39;;;;;;;;;;;14.40;79.20;;;;;;4947480;28;19957;-54
2022/10/02 08:49:05;;;;;;;;;;;;;;;;;;4948142;28;19961;-54
2022/10/02 08:51:32;;;;;;;;;;;;;;;;;;4951336;28;20013;-54
2022/10/02 08:53:57;;;;;;;;;;;;;;;;;;4958149;28;19920;-54
2022/10/02 08:56:24;;;;;;;;;;;;;;;;;;4956087;28;20270;-54
2022/10/02 08:58:50;;;;;;;;;;;;;;;;;;4946843;28;20506;-54
2022/10/02 09:01:16;;;;;;;;;;;;;;;;;;4949106;28;19953;-54
2022/10/02 09:03:44;;;;;;;;;;;;;;;;;;4945220;28;19910;-54
2022/10/02 09:06:10;;;;;;;;;;;;;;;;;;4934693;28;19914;-54
2022/10/02 09:08:50;;;;;;;;;;;15.10;1.00;;;;;;4941404;28;20501;-54
2022/10/02 09:11:17;;;;;;;;;;;;;;;;;;4945978;28;20287;-54
2022/10/02 09:13:44;;;;;;;;;;;;;;;;;;4965140;28;19922;-54
2022/10/02 09:16:10;;;;;;;;;;;;;;;;;;4964253;28;20405;-54
2022/10/02 09:18:49;;;;;;;;;;;15.50;1.00;;;;;;4959194;28;19911;-54
2022/10/02 09:21:15;;;;;;;;;;;;;;;;;;4955471;28;19961;-54
2022/10/02 09:23:56;;;;;;;;;;;15.80;1.00;;;;;;4967278;28;19937;-54
2022/10/02 09:26:22;;;;;;;;;;;;;;;;;;4962018;28;19914;-53
2022/10/02 09:28:48;;;;;;;;;;;;;;;;;;4955102;28;19915;-54
2022/10/02 09:31:14;;;;;;;;;;;;;;;;;;4958578;28;19945;-54
2022/10/02 09:33:40;;;;;;;;;;;;;;;;;;4966547;28;19952;-53
2022/10/02 09:36:06;;;;;;;;;;;;;;;;;;4962273;28;19949;-53
2022/10/02 09:38:32;;;;;;;;;;;;;;;;;;4963745;28;19920;-53
2022/10/02 09:40:58;;;;;;;;;;;;;;;;;;4963975;28;20363;-53
2022/10/02 09:43:24;;;;;;;;;;;;;;;;;;4960550;28;20208;-54
2022/10/02 09:45:50;;;;;;;;;;;;;;;;;;4954151;28;19916;-53
2022/10/02 09:48:16;;;;;;;;;;;;;;;;;;4947347;28;19918;-53
2022/10/02 09:50:41;;;;;;;;;;;;;;;;;;4951838;28;19960;-53
2022/10/02 09:53:07;;;;;;;;;;;;;;;;;;4960644;28;19914;-53
2022/10/02 09:55:35;;;;;;;;;;;;;;;;;;4966586;28;19914;-54
2022/10/02 09:58:01;;;;;;;;;;;;;;;;;;4957856;28;19922;-53
2022/10/02 10:00:27;;;;;;;;;;;;;;;;;;4957837;28;19910;-53
2022/10/02 10:02:53;;;;;;;;;;;;;;;;;;4953951;28;19914;-53
2022/10/02 10:05:18;;;;;;;;;;;;;;;;;;4939704;28;20033;-54
2022/10/02 10:07:44;;;;;;;;;;;;;;;;;;4947141;28;19969;-53
2022/10/02 10:10:11;;;;;;;;;;;;;;;;;;4949523;28;22536;-54
2022/10/02 10:12:40;;;;;;;;;;;;;;;;;;4964539;28;19910;-53
2022/10/02 10:15:18;;;;;;;;;;;16.50;1.00;;;;;;4965876;28;19902;-53
2022/10/02 10:17:44;;;;;;;;;;;;;;;;;;4962673;28;19922;-53
2022/10/02 10:20:11;;;;;;;;;;;;;;;;;;4952380;28;19945;-53
2022/10/02 10:22:37;;;;;;;;;;;;;;;;;;4963334;28;19964;-53
2022/10/02 10:25:03;;;;;;;;;;;;;;;;;;4966331;28;19950;-54
2022/10/02 10:27:29;;;;;;;;;;;;;;;;;;4959821;28;20227;-54
2022/10/02 10:29:55;;;;;;;;;;;;;;;;;;4964625;28;19922;-53
2022/10/02 10:32:21;;;;;;;;;;;;;;;;;;4966161;28;19973;-53
2022/10/02 10:34:47;;;;;;;;;;;;;;;;;;4952304;28;20335;-53
2022/10/02 10:40:09;;;;;;;;;;;;;;;;;;4936591;28;19922;-53
2022/10/02 10:42:55;;;;;;;;;;;17.00;1.00;;;;;;4946738;28;20327;-53
2022/10/02 10:45:21;;;;;;;;;;;17.10;99.90;;;;;;4942275;28;19960;-53
2022/10/02 10:47:47;;;;;;;;;;;;;;;;;;4945248;28;20698;-53
2022/10/02 10:50:13;;;;;;;;;;;;;;;;;;4949551;28;19925;-53
2022/10/02 10:52:39;;;;;;;;;;;;;;;;;;4947783;28;19922;-53
2022/10/02 10:55:05;;;;;;;;;;;;;;;;;;4946309;28;19918;-53
2022/10/02 10:57:31;;;;;;;;;;;;;;;;;;4942747;28;19921;-54
2022/10/02 10:59:57;;;;;;;;;;;;;;;;;;4944509;28;20632;-54
2022/10/02 11:02:22;;;;;;;;;;;;;;;;;;4940536;28;20401;-54
2022/10/02 11:04:51;;;;;;;;;;;;;;;;;;4944107;28;19918;-54
2022/10/02 11:07:16;;;;;;;;;;;;;;;;;;4938051;28;20728;-54
2022/10/02 11:09:42;;;;;;;;;;;17.90;1.00;;;;;;4939797;28;20001;-54
2022/10/02 11:12:08;;;;;;;;;;;;;;;;;;4937231;28;20040;-53
2022/10/02 11:14:34;;;;;;;;;;;;;;;;;;4935884;28;19918;-53
2022/10/02 11:17:00;;;;;;;;;;;;;;;;;;4938957;28;19941;-53
2022/10/02 11:19:25;;;;;;;;;;;;;;;;;;4939382;28;19922;-52
2022/10/02 11:21:54;;;;;;;;;;;;;;;;;;4942390;28;20299;-52
2022/10/02 11:30:34;;;;;;;;;;;;;;;;;;5055288;27;19938;-52
2022/10/02 11:33:00;;;;;;;;;;;;;;;;;;5036668;28;19909;-52
2022/10/02 11:35:26;;;;;;;;;;;;;;;;;;5045974;28;19928;-52
2022/10/02 11:37:52;;;;;;;;;;;;;;;;;;5060553;28;19930;-53
2022/10/02 11:40:18;;;;;;;;;;;;;;;;;;5058164;28;20513;-53
2022/10/02 11:43:10;;;;;;;;;;;16.60;99.90;;;;;;5052549;28;19920;-53
2022/10/02 11:45:37;;;;;;;;;;;;;;;;;;5065964;28;19963;-53
2022/10/02 11:48:04;;;;;;;;;;;;;;;;;;5063811;28;20242;-53
2022/10/02 11:50:30;;;;;;;;;;;;;;;;;;5063817;28;20329;-53
2022/10/02 11:52:56;;;;;;;;;;;;;;;;;;5054787;27;19953;-52
2022/10/02 11:55:22;;;;;;;;;;;;;;;;;;5051510;28;20104;-53
2022/10/02 11:57:48;;;;;;;;;;;;;;;;;;5031891;28;19936;-53
2022/10/02 12:00:14;;;;;;;;;;;;;;;;;;5033058;28;19916;-53
2022/10/02 12:02:40;;;;;;;;;;;;;;;;;;5050935;28;19931;-53
2022/10/02 12:05:07;;;;;;;;;;;;;;;;;;5041395;28;20015;-53
2022/10/02 12:07:33;;;;;;;;;;;;;;;;;;5023244;28;19943;-53
2022/10/02 12:09:58;;;;;;;;;;;;;;;;;;5040372;28;20384;-52
2022/10/02 12:12:24;;;;;;;;;;;;;;;;;;5060610;28;19912;-52
2022/10/02 12:14:50;;;;;;;;;;;;;;;;;;5047681;28;19921;-52
2022/10/02 12:17:16;;;;;;;;;;;;;;;;;;5031014;28;19928;-52
2022/10/02 12:26:57;;;;;;;;;;;14.10;99.90;;;;;;5032432;28;19923;-52
2022/10/02 12:28:10;;;;;;;;;;;;;;;;;;5048853;28;20022;-53
2022/10/02 12:30:38;;;;;;;;;;;;;;;;;;5047451;28;20062;-53
2022/10/02 12:33:07;;;;;;;;;;;;;;;;;;5043887;28;19922;-53
2022/10/02 12:35:32;;;;;;;;;;;;;;;;;;5047345;28;20471;-53
2022/10/02 12:37:58;;;;;;;;;;;;;;;;;;5050167;28;19916;-53
2022/10/02 12:40:24;;;;;;;;;;;;;;;;;;5038962;28;19923;-53
2022/10/02 12:42:50;;;;;;;;;;;;;;;;;;5039354;28;19913;-53
2022/10/02 12:45:16;;;;;;;;;;;;;;;;;;5038037;28;19920;-53
2022/10/02 12:47:42;;;;;;;;;;;;;;;;;;5037511;28;20391;-53
2022/10/02 12:50:08;;;;;;;;;;;;;;;;;;5018195;28;20251;-53
2022/10/02 12:52:39;;;;;;;;;;;15.30;99.90;;;;;;5018999;28;19924;-53
2022/10/02 12:55:05;;;;;;;;;;;;;;;;;;5021079;28;20011;-53
2022/10/02 13:00:15;;;;;;;;;;;;;;;;;;5043663;28;20368;-53
2022/10/02 13:02:41;;;;;;;;;;;;;;;;;;5039529;28;19956;-53
2022/10/02 13:05:07;;;;;;;;;;;;;;;;;;5027761;28;20554;-54
2022/10/02 13:07:34;;;;;;;;;;;;;;;;;;5031465;28;19942;-53
2022/10/02 13:10:00;;;;;;;;;;;;;;;;;;5053982;28;19966;-53
2022/10/02 13:12:25;;;;;;;;;;;;;;;;;;5040741;28;20476;-53
2022/10/02 13:15:03;;;;;;;;;;;17.40;99.90;;;;;;5035045;28;19924;-53
2022/10/02 13:17:29;;;;;;;;;;;;;;;;;;5035397;28;19921;-53
2022/10/02 13:19:55;;;;;;;;;;;;;;;;;;5027336;28;19924;-53
2022/10/02 13:22:20;;;;;;;;;;;;;;;;;;5023421;28;19924;-53
2022/10/02 13:24:46;;;;;;;;;;;;;;;;;;5027008;28;20395;-53
2022/10/02 13:27:28;;;;;;;;;;;20.20;99.90;;;;;;5036638;28;20031;-53
2022/10/02 13:29:53;;;;;;;;;;;;;;;;;;5021508;28;19927;-53
2022/10/02 13:32:19;;;;;;;;;;;;;;;;;;5033039;28;19920;-53
2022/10/02 13:34:45;;;;;;;;;;;;;;;;;;5028638;28;20051;-54
2022/10/02 13:37:11;;;;;;;;;;;;;;;;;;5033607;28;19921;-54
2022/10/02 13:39:37;;;;;;;;;;;;;;;;;;5040037;28;19916;-54
2022/10/02 13:42:03;;;;;;;;;;;;;;;;;;5037852;28;20079;-54
2022/10/02 13:44:29;;;;;;;;;;;;;;;;;;5040385;28;20011;-54
2022/10/02 13:46:54;;;;;;;;;;;;;;;;;;5031941;28;20349;-54
2022/10/02 13:49:20;;;;;;;;;;;;;;;;;;5040361;28;20296;-54
2022/10/02 13:51:46;;;;;;;;;;;;;;;;;;5034086;28;19955;-54
2022/10/02 14:00:36;;;;;;;;;;;;;;;;;;5060410;27;19924;-53
2022/10/02 14:03:02;;;;;;;;;;;;;;;;;;5023357;28;19936;-55
2022/10/02 14:05:27;;;;;;;;;;;;;;;;;;5016754;28;19932;-53
2022/10/02 14:07:53;;;;;;;;;;;;;;;;;;5013855;28;20563;-53
2022/10/02 14:10:19;;;;;;;;;;;;;;;;;;5023111;28;20339;-53
2022/10/02 14:19:50;;;;;;;;;;;;;;;;;;5018782;28;19932;-53
2022/10/02 14:22:16;;;;;;;;;;;;;;;;;;5008419;28;19925;-53
2022/10/02 14:25:02;;;;;;;;;;;;;;;;;;5040309;28;19921;-54
2022/10/02 14:27:28;;;;;;;;;;;;;;;;;;5030849;28;19992;-54
2022/10/02 14:29:54;;;;;;;;;;;;;;;;;;5034621;28;19927;-54
2022/10/02 14:32:20;;;;;;;;;;;;;;;;;;5033790;28;19920;-54
2022/10/02 14:34:53;;;;;;;;;;;19.60;99.90;;;;;;5040345;28;19916;-54
2022/10/02 14:37:19;;;;;;;;;;;;;;;;;;5042066;28;20386;-54
2022/10/02 14:39:45;;;;;;;;;;;;;;;;;;5037400;28;19931;-55
2022/10/02 14:42:12;;;;;;;;;;;;;;;;;;5039052;28;20007;-55
2022/10/02 14:44:38;;;;;;;;;;;;;;;;;;5040065;28;19956;-54
2022/10/02 14:47:05;;;;;;;;;;;;;;;;;;5017919;28;19995;-54
2022/10/02 14:49:49;;;;;;;;;;;19.80;1.00;;;;;;5017331;28;20274;-54
2022/10/02 14:52:29;;;;;;;;;;;19.50;1.00;;;;;;5022150;28;19978;-54
2022/10/02 14:54:55;;;;;;;;;;;;;;;;;;5023010;28;20229;-54
2022/10/02 14:57:28;;;;;;;;;;;19.90;76.10;;;;;;5003340;28;19913;-54
2022/10/02 14:59:54;;;;;;;;;;;;;;;;;;5040490;28;19931;-55
2022/10/02 15:02:20;;;;;;;;;;;;;;;;;;5024766;28;20732;-54
2022/10/02 15:04:46;;;;;;;;;;;;;;;;;;5019187;28;20282;-54
2022/10/02 15:07:12;;;;;;;;;;;;;;;;;;5031776;28;19979;-54
2022/10/02 15:09:38;;;;;;;;;;;;;;;;;;5038168;28;20073;-53
2022/10/02 15:12:06;;;;;;;;;;;19.50;99.90;;;;;;5043283;28;19955;-54
2022/10/02 15:14:32;;;;;;;;;;;;;;;;;;5034074;28;19959;-54
2022/10/02 15:19:43;;;;;;;;;;;;;;;;;;5030686;28;19927;-54
2022/10/02 15:22:10;;;;;;;;;;;;;;;;;;5030812;28;20131;-54
2022/10/02 15:24:41;;;;;;;;;;;18.10;1.00;;;;;;5034780;28;19932;-54
2022/10/02 15:27:07;;;;;;;;;;;;;;;;;;5033937;28;20008;-54
2022/10/02 15:29:33;;;;;;;;;;;;;;;;;;5028423;28;19921;-54
2022/10/02 15:31:59;;;;;;;;;;;;;;;;;;5021314;28;19975;-54
2022/10/02 15:34:25;;;;;;;;;;;;;;;;;;5025814;28;20293;-54
2022/10/02 15:36:51;;;;;;;421.10;211.77;;;;;;;;;;5006165;28;20003;-54
2022/10/02 15:39:44;;;;;;;392.23;201.03;;;18.60;99.90;;;;;;5018903;28;20185;-54
2022/10/02 15:42:12;;;;;;;404.73;206.57;;;18.90;99.90;;;;;;5013204;28;20429;-54
2022/10/02 15:44:38;;;;;;;513.97;254.47;;;;;;;;;;5009837;28;20222;-54
2022/10/02 15:47:47;;;;;;;423.57;209.07;;;18.00;1.00;;;;;;5017830;28;21012;-53
2022/10/02 15:50:21;;;;;;;409.63;202.80;;;17.70;1.00;;;;;;5014733;28;20230;-54